Pagina principale
METAR-TAF:

METAR-TAF

Aeroporti :

Béziers, Francia

latitudine: 43-19N, longitudine: 003-21E, altezza: 17 m

Osservazione

Il bollettino è stato emesso 24 minuti fa, alle 06:30 UTC
Vento calmo
Temperature 6°C
Umidità 75%
Pressione 1010 hPa
Visibilità 10 km o più
Poco nuvoloso ad un'altezza di 4500 ft
Cielo coperto ad un'altezza di 5200 ft

METAR: LFMU 180630Z AUTO 00000KT 9999 FEW045 OVC052 06/02 Q1010 NOSIG

Ora: 07:54 (06:54 UTC)

Previsione

Il bollettino è stato emesso 4 ore e 54 minuti fa, alle 02:00 UTC
Previsione valida dal 18 alle 03 UTC al 19 alle 03 UTC
Vento 5 kt da direzioni variabili
Visibilità 10 km o più
Nuvoloso ad un'altezza di 2000 ft
Evoluzione graduale
dal 18 alle 10 UTC al 18 alle 12 UTC
Vento 15 kt da nord-ovest con raffiche fino a 25 kt

TAF: LFMU 180200Z 1803/1903 VRB05KT 9999 BKN020 BECMG 1810/1812 32015G25KT NSC

Osservazioni e previsioni meteorologiche di più di 4000 aeroporti (messaggi METAR e TAF).

Le stazioni disponibili sono rappresentate dai dischi gialli e rossi sulla carta.

Puntare il mouse per vedere il nome della stazione.

Clicca sopra per visualizzare le osservazioni e previsioni meteorologiche.

Per cambiare la mappa : fare clic sui pulsanti verdi con una croce nera per ingrandire, il pulsante verde con un trattino per diminuire, o sulla freccia verde per le mappe adiacenti.


METAR-TAF: